createdAt,value
2023-03-26T00:01:42.507Z,92385.00
2023-03-26T00:05:42.988Z,92379.00
2023-03-26T00:09:42.680Z,92371.00
2023-03-26T00:13:42.628Z,92363.00
2023-03-26T00:17:42.743Z,92367.00
2023-03-26T00:21:42.779Z,92373.00
2023-03-26T00:25:43.057Z,92373.00
2023-03-26T00:29:42.936Z,92373.00
2023-03-26T00:33:43.036Z,92363.00
2023-03-26T00:37:43.128Z,92363.00
2023-03-26T00:41:43.366Z,92359.00
2023-03-26T00:45:43.390Z,92359.00
2023-03-26T00:49:43.402Z,92354.00
2023-03-26T00:53:43.524Z,92348.00
2023-03-26T00:57:43.534Z,92350.00
2023-03-26T01:01:43.640Z,92350.00
2023-03-26T01:05:43.728Z,92340.00
2023-03-26T01:09:43.818Z,92346.00
2023-03-26T01:13:43.884Z,92338.00
2023-03-26T01:17:43.994Z,92334.00
2023-03-26T01:21:44.068Z,92338.00
2023-03-26T01:25:44.165Z,92338.00
2023-03-26T01:29:44.301Z,92321.00
2023-03-26T01:33:44.477Z,92338.00
2023-03-26T01:37:44.510Z,92338.00
2023-03-26T01:41:44.638Z,92334.00
2023-03-26T01:45:44.741Z,92321.00
2023-03-26T01:49:44.848Z,92330.00
2023-03-26T01:53:45.061Z,92332.00
2023-03-26T01:57:45.168Z,92336.00
2023-03-26T02:01:45.376Z,92334.00
2023-03-26T02:05:45.318Z,92321.00
2023-03-26T02:09:45.498Z,92319.00
2023-03-26T02:13:45.622Z,92315.00
2023-03-26T02:17:45.799Z,92305.00
2023-03-26T02:21:45.894Z,92307.00
2023-03-26T02:25:46.029Z,92305.00
2023-03-26T02:29:46.178Z,92301.00
2023-03-26T02:33:46.346Z,92295.00
2023-03-26T02:37:46.517Z,92301.00
2023-03-26T02:41:46.699Z,92289.00
2023-03-26T02:45:46.923Z,92293.00
2023-03-26T02:49:47.019Z,92287.00
2023-03-26T02:53:47.176Z,92293.00
2023-03-26T02:57:47.313Z,92279.00
2023-03-26T03:01:47.461Z,92252.00
2023-03-26T03:05:47.586Z,92228.00
2023-03-26T03:09:47.763Z,92234.00
2023-03-26T03:13:47.893Z,92234.00
2023-03-26T03:17:48.126Z,92232.00
2023-03-26T03:21:48.251Z,92226.00
2023-03-26T03:25:48.490Z,92219.00
2023-03-26T03:29:48.593Z,92213.00
2023-03-26T03:33:48.785Z,92205.00
2023-03-26T03:37:48.963Z,92197.00
2023-03-26T03:41:49.144Z,92195.00
2023-03-26T03:45:49.317Z,92195.00
2023-03-26T03:49:49.497Z,92187.00
2023-03-26T03:53:50.136Z,92203.00
2023-03-26T03:57:49.871Z,92199.00
2023-03-26T04:01:50.089Z,92187.00
2023-03-26T04:05:50.220Z,92179.00
2023-03-26T04:09:50.400Z,92170.00
2023-03-26T04:13:50.561Z,92160.00
2023-03-26T04:17:50.795Z,92152.00
2023-03-26T04:21:50.953Z,92140.00
2023-03-26T04:25:51.134Z,92134.00
2023-03-26T04:29:51.350Z,92119.00
2023-03-26T04:33:51.556Z,92119.00
2023-03-26T04:37:51.766Z,92115.00
2023-03-26T04:41:51.990Z,92115.00
2023-03-26T04:45:52.322Z,92111.00
2023-03-26T04:49:52.370Z,92111.00
2023-03-26T04:53:52.567Z,92105.00
2023-03-26T04:57:52.786Z,92113.00
2023-03-26T05:01:53.002Z,92109.00
2023-03-26T05:05:53.395Z,92117.00
2023-03-26T05:09:53.447Z,92113.00
2023-03-26T05:13:54.653Z,92113.00
2023-03-26T05:17:53.917Z,92121.00
2023-03-26T05:21:54.689Z,92111.00
2023-03-26T05:25:54.345Z,92105.00
2023-03-26T05:29:54.559Z,92103.00
2023-03-26T05:33:54.859Z,92095.00
2023-03-26T05:37:55.076Z,92091.00
2023-03-26T05:41:55.403Z,92081.00
2023-03-26T05:45:55.631Z,92073.00
2023-03-26T05:49:55.861Z,92073.00
2023-03-26T05:53:56.188Z,92064.00
2023-03-26T05:57:56.376Z,92058.00
2023-03-26T06:01:56.629Z,92058.00
2023-03-26T06:05:56.905Z,92052.00
2023-03-26T06:09:57.149Z,92058.00
2023-03-26T06:13:57.422Z,92054.00
2023-03-26T06:17:57.694Z,92058.00
2023-03-26T06:21:57.924Z,92046.00
2023-03-26T06:25:58.193Z,92034.00
2023-03-26T06:29:58.443Z,92007.00
2023-03-26T06:33:58.705Z,92003.00
2023-03-26T06:37:58.949Z,91984.00
2023-03-26T06:41:59.204Z,91972.00
2023-03-26T06:45:59.445Z,91972.00
2023-03-26T06:49:59.656Z,91974.00
2023-03-26T06:53:59.912Z,91980.00
2023-03-26T06:58:00.151Z,91978.00
2023-03-26T07:02:00.450Z,91974.00
2023-03-26T07:06:00.671Z,91974.00
2023-03-26T07:10:00.850Z,91962.00
2023-03-26T07:14:01.079Z,91954.00
2023-03-26T07:18:01.330Z,91952.00
2023-03-26T07:22:01.565Z,91946.00
2023-03-26T07:26:01.766Z,91919.00
2023-03-26T07:30:01.979Z,91903.00
2023-03-26T07:34:02.366Z,91903.00
2023-03-26T07:38:02.456Z,91874.00
2023-03-26T07:42:02.693Z,91860.00
2023-03-26T07:46:02.935Z,91854.00
2023-03-26T07:50:03.080Z,91860.00
2023-03-26T07:54:03.284Z,91856.00
2023-03-26T07:58:03.492Z,91854.00
2023-03-26T08:02:03.652Z,91852.00
2023-03-26T08:06:03.856Z,91850.00
2023-03-26T08:10:04.044Z,91840.00
2023-03-26T08:14:04.243Z,91837.00
2023-03-26T08:18:04.526Z,91833.00
2023-03-26T08:22:04.654Z,91823.00
2023-03-26T08:26:04.808Z,91823.00
2023-03-26T08:30:04.995Z,91827.00
2023-03-26T08:34:05.164Z,91827.00
2023-03-26T08:38:05.355Z,91827.00
2023-03-26T08:42:05.552Z,91825.00
2023-03-26T08:46:05.777Z,91840.00
2023-03-26T08:50:05.915Z,91835.00
2023-03-26T08:54:06.126Z,91833.00
2023-03-26T08:58:06.392Z,91829.00
2023-03-26T09:02:06.605Z,91807.00
2023-03-26T09:06:06.717Z,91821.00
2023-03-26T09:10:06.923Z,91807.00
2023-03-26T09:14:07.174Z,91784.00
2023-03-26T09:18:07.343Z,91772.00
2023-03-26T09:22:07.491Z,91764.00
2023-03-26T09:26:07.679Z,91751.00
2023-03-26T09:30:07.867Z,91743.00
2023-03-26T09:34:08.060Z,91735.00
2023-03-26T09:38:08.237Z,91733.00
2023-03-26T09:42:08.422Z,91733.00
2023-03-26T09:46:08.710Z,91725.00
2023-03-26T09:50:08.829Z,91723.00
2023-03-26T09:54:09.015Z,91715.00
2023-03-26T09:58:09.275Z,91719.00
2023-03-26T10:02:09.434Z,91723.00
2023-03-26T10:06:09.602Z,91721.00
2023-03-26T10:10:09.797Z,91723.00
2023-03-26T10:14:09.999Z,91727.00
2023-03-26T10:18:27.652Z,91727.00
2023-03-26T10:22:11.306Z,91733.00
2023-03-26T10:26:10.445Z,91731.00
2023-03-26T10:30:10.529Z,91729.00
2023-03-26T10:34:10.662Z,91733.00
2023-03-26T10:38:11.750Z,91741.00
2023-03-26T10:42:10.851Z,91733.00
2023-03-26T10:46:11.028Z,91733.00
2023-03-26T10:50:11.079Z,91749.00
2023-03-26T10:54:11.202Z,91739.00
2023-03-26T10:58:11.364Z,91735.00
2023-03-26T11:02:11.579Z,91739.00
2023-03-26T11:06:11.794Z,91737.00
2023-03-26T11:10:12.043Z,91743.00
2023-03-26T11:14:16.855Z,91735.00
2023-03-26T11:18:13.432Z,91735.00
2023-03-26T11:22:12.444Z,91735.00
2023-03-26T11:26:12.534Z,91733.00
2023-03-26T11:30:12.598Z,91737.00
2023-03-26T11:34:12.805Z,91741.00
2023-03-26T11:38:13.027Z,91747.00
2023-03-26T11:42:13.277Z,91739.00
2023-03-26T11:46:13.589Z,91735.00
2023-03-26T11:50:13.785Z,91735.00
2023-03-26T11:54:14.033Z,91739.00
2023-03-26T11:58:14.320Z,91739.00
2023-03-26T12:02:14.587Z,91743.00
2023-03-26T12:06:14.813Z,91737.00
2023-03-26T12:10:18.280Z,91743.00
2023-03-26T12:14:15.198Z,91741.00
2023-03-26T12:18:15.281Z,91739.00
2023-03-26T12:22:15.451Z,91741.00
2023-03-26T12:26:15.552Z,91739.00
2023-03-26T12:30:15.583Z,91729.00
2023-03-26T12:34:15.690Z,91729.00
2023-03-26T12:38:15.919Z,91735.00
2023-03-26T12:44:44.019Z,91733.00
2023-03-26T12:47:57.494Z,91735.00
2023-03-26T12:50:17.445Z,91737.00
2023-03-26T12:54:16.551Z,91729.00
2023-03-26T12:58:16.645Z,91737.00
2023-03-26T13:02:16.765Z,91733.00
2023-03-26T13:06:16.894Z,91731.00
2023-03-26T13:10:16.939Z,91727.00
2023-03-26T13:14:17.056Z,91727.00
2023-03-26T13:18:17.219Z,91719.00
2023-03-26T13:22:17.531Z,91713.00
2023-03-26T13:26:17.842Z,91711.00
2023-03-26T13:30:18.396Z,91704.00
2023-03-26T13:34:18.462Z,91700.00
2023-03-26T13:38:18.794Z,91698.00
2023-03-26T13:42:19.111Z,91702.00
2023-03-26T13:46:19.445Z,91704.00
2023-03-26T13:50:19.765Z,91702.00
2023-03-26T13:54:20.073Z,91704.00
2023-03-26T13:58:20.416Z,91694.00
2023-03-26T14:02:20.739Z,91688.00
2023-03-26T14:06:21.077Z,91686.00
2023-03-26T14:10:21.410Z,91692.00
2023-03-26T14:14:21.745Z,91678.00
2023-03-26T14:18:22.087Z,91660.00
2023-03-26T14:22:22.431Z,91666.00
2023-03-26T14:26:22.767Z,91662.00
2023-03-26T14:30:23.135Z,91668.00
2023-03-26T14:34:23.473Z,91670.00
2023-03-26T14:38:23.834Z,91670.00
2023-03-26T14:42:24.156Z,91672.00
2023-03-26T14:46:24.328Z,91664.00
2023-03-26T14:50:24.364Z,91658.00
2023-03-26T14:54:24.501Z,91654.00
2023-03-26T14:58:24.599Z,91645.00
2023-03-26T15:02:24.855Z,91643.00
2023-03-26T15:06:24.849Z,91645.00
2023-03-26T15:10:24.955Z,91635.00
2023-03-26T15:14:25.114Z,91629.00
2023-03-26T15:18:25.173Z,91623.00
2023-03-26T15:22:26.136Z,91613.00
2023-03-26T15:26:25.440Z,91605.00
2023-03-26T15:30:26.978Z,91605.00
2023-03-26T15:34:26.142Z,91611.00
2023-03-26T15:38:26.269Z,91615.00
2023-03-26T15:42:26.381Z,91604.00
2023-03-26T15:46:26.562Z,91596.00
2023-03-26T15:50:26.626Z,91588.00
2023-03-26T15:54:26.894Z,91598.00
2023-03-26T15:58:26.963Z,91598.00
2023-03-26T16:02:27.034Z,91598.00
2023-03-26T16:06:27.137Z,91586.00
2023-03-26T16:10:27.263Z,91582.00
2023-03-26T16:14:27.473Z,91562.00
2023-03-26T16:18:27.525Z,91543.00
2023-03-26T16:22:27.792Z,91521.00
2023-03-26T16:26:28.117Z,91500.00
2023-03-26T16:30:28.484Z,91480.00
2023-03-26T16:34:28.873Z,91482.00
2023-03-26T16:38:29.254Z,91484.00
2023-03-26T16:42:29.359Z,91478.00
2023-03-26T16:46:29.536Z,91492.00
2023-03-26T16:50:29.591Z,91490.00
2023-03-26T16:54:29.704Z,91492.00
2023-03-26T16:58:29.790Z,91478.00
2023-03-26T17:02:29.948Z,91480.00
2023-03-26T17:06:30.110Z,91504.00
2023-03-26T17:10:30.153Z,91512.00
2023-03-26T17:14:30.283Z,91539.00
2023-03-26T17:18:30.581Z,91551.00
2023-03-26T17:22:30.650Z,91562.00
2023-03-26T17:26:30.738Z,91574.00
2023-03-26T17:30:30.854Z,91607.00
2023-03-26T17:34:30.984Z,91613.00
2023-03-26T17:38:31.113Z,91629.00
2023-03-26T17:42:31.326Z,91649.00
2023-03-26T17:46:31.367Z,91641.00
2023-03-26T17:50:31.457Z,91641.00
2023-03-26T17:54:31.610Z,91639.00
2023-03-26T17:58:31.788Z,91635.00
2023-03-26T18:02:31.978Z,91617.00
2023-03-26T18:06:32.033Z,91617.00
2023-03-26T18:10:32.227Z,91607.00
2023-03-26T18:14:32.278Z,91602.00
2023-03-26T18:18:32.419Z,91596.00
2023-03-26T18:22:32.550Z,91586.00
2023-03-26T18:26:32.668Z,91578.00
2023-03-26T18:30:32.770Z,91580.00
2023-03-26T18:34:32.900Z,91570.00
2023-03-26T18:38:35.872Z,91562.00
2023-03-26T18:42:34.149Z,91570.00
2023-03-26T18:46:33.256Z,91578.00
2023-03-26T18:50:33.618Z,91576.00
2023-03-26T18:54:33.936Z,91586.00
2023-03-26T18:58:34.069Z,91607.00
2023-03-26T19:02:34.280Z,91617.00
2023-03-26T19:06:34.344Z,91623.00
2023-03-26T19:10:34.434Z,91639.00
2023-03-26T19:14:34.564Z,91647.00
2023-03-26T19:18:34.666Z,91654.00
2023-03-26T19:22:34.782Z,91656.00
2023-03-26T19:26:34.910Z,91645.00
2023-03-26T19:30:35.066Z,91649.00
2023-03-26T19:34:35.146Z,91645.00
2023-03-26T19:38:35.282Z,91641.00
2023-03-26T19:42:42.912Z,91641.00
2023-03-26T19:46:53.940Z,91643.00
2023-03-26T19:50:36.876Z,91633.00
2023-03-26T19:54:35.994Z,91625.00
2023-03-26T19:58:36.110Z,91625.00
2023-03-26T20:02:36.323Z,91617.00
2023-03-26T20:06:43.069Z,91613.00
2023-03-26T20:10:37.437Z,91623.00
2023-03-26T20:14:36.564Z,91619.00
2023-03-26T20:18:36.769Z,91633.00
2023-03-26T20:22:37.048Z,91639.00
2023-03-26T20:26:37.337Z,91643.00
2023-03-26T20:30:38.176Z,91631.00
2023-03-26T20:34:37.954Z,91627.00
2023-03-26T20:38:40.005Z,91609.00
2023-03-26T20:42:38.575Z,91611.00
2023-03-26T20:46:38.948Z,91609.00
2023-03-26T20:50:49.965Z,91602.00
2023-03-26T20:54:40.368Z,91605.00
2023-03-26T20:58:39.545Z,91615.00
2023-03-26T21:02:41.854Z,91613.00
2023-03-26T21:06:39.719Z,91619.00
2023-03-26T21:10:39.819Z,91625.00
2023-03-26T21:14:39.916Z,91639.00
2023-03-26T21:18:40.058Z,91641.00
2023-03-26T21:22:40.123Z,91635.00
2023-03-26T21:26:41.426Z,91631.00
2023-03-26T21:30:40.339Z,91615.00
2023-03-26T21:34:47.664Z,91621.00
2023-03-26T21:38:41.654Z,91623.00
2023-03-26T21:42:40.726Z,91631.00
2023-03-26T21:46:40.866Z,91629.00
2023-03-26T21:50:41.100Z,91627.00
2023-03-26T21:54:41.284Z,91613.00
2023-03-26T21:58:41.422Z,91617.00
2023-03-26T22:02:41.676Z,91613.00
2023-03-26T22:06:41.777Z,91609.00
2023-03-26T22:10:41.972Z,91617.00
2023-03-26T22:14:42.140Z,91619.00
2023-03-26T22:18:42.359Z,91623.00
2023-03-26T22:22:42.541Z,91625.00
2023-03-26T22:26:42.665Z,91629.00
2023-03-26T22:30:42.819Z,91631.00
2023-03-26T22:34:43.004Z,91625.00
2023-03-26T22:38:43.306Z,91617.00
2023-03-26T22:42:44.085Z,91613.00
2023-03-26T22:46:43.978Z,91611.00
2023-03-26T22:50:43.978Z,91613.00
2023-03-26T22:54:44.134Z,91615.00
2023-03-26T22:58:44.298Z,91611.00
2023-03-26T23:02:44.479Z,91615.00
2023-03-26T23:06:44.674Z,91617.00
2023-03-26T23:10:44.859Z,91611.00
2023-03-26T23:14:45.030Z,91611.00
2023-03-26T23:18:45.191Z,91613.00
2023-03-26T23:22:45.408Z,91604.00
2023-03-26T23:26:50.572Z,91604.00
2023-03-26T23:30:47.086Z,91602.00
2023-03-26T23:34:51.623Z,91598.00
2023-03-26T23:38:46.890Z,91604.00
2023-03-26T23:42:46.008Z,91602.00
2023-03-26T23:46:46.134Z,91605.00
2023-03-26T23:50:46.253Z,91602.00
2023-03-26T23:54:46.382Z,91613.00
2023-03-26T23:58:46.514Z,91609.00
